sensor_id;sensor_type;location;lat;lon;timestamp;temperature;humidity
11474;DHT22;5793;52.238;13.438;2023-01-04T00:00:09;3.00;99.90
11474;DHT22;5793;52.238;13.438;2023-01-04T00:02:37;3.10;99.90
11474;DHT22;5793;52.238;13.438;2023-01-04T00:05:06;3.00;99.90
11474;DHT22;5793;52.238;13.438;2023-01-04T00:07:34;3.00;99.90
11474;DHT22;5793;52.238;13.438;2023-01-04T00:10:02;3.10;99.90
11474;DHT22;5793;52.238;13.438;2023-01-04T00:12:30;3.10;99.90
11474;DHT22;5793;52.238;13.438;2023-01-04T00:14:57;3.10;99.90
11474;DHT22;5793;52.238;13.438;2023-01-04T00:17:27;3.10;99.90
11474;DHT22;5793;52.238;13.438;2023-01-04T00:19:54;3.10;99.90
11474;DHT22;5793;52.238;13.438;2023-01-04T00:22:22;3.10;99.90
11474;DHT22;5793;52.238;13.438;2023-01-04T00:24:50;3.00;99.90
11474;DHT22;5793;52.238;13.438;2023-01-04T00:27:18;3.00;99.90
11474;DHT22;5793;52.238;13.438;2023-01-04T00:29:45;3.00;99.90
11474;DHT22;5793;52.238;13.438;2023-01-04T00:32:13;3.00;99.90
11474;DHT22;5793;52.238;13.438;2023-01-04T00:34:42;3.00;99.90
11474;DHT22;5793;52.238;13.438;2023-01-04T00:37:10;2.90;99.90
11474;DHT22;5793;52.238;13.438;2023-01-04T00:39:38;2.90;99.90
11474;DHT22;5793;52.238;13.438;2023-01-04T00:42:06;3.00;99.90
11474;DHT22;5793;52.238;13.438;2023-01-04T00:44:34;3.00;99.90
11474;DHT22;5793;52.238;13.438;2023-01-04T00:47:03;2.90;99.90
11474;DHT22;5793;52.238;13.438;2023-01-04T00:49:31;3.00;99.90
11474;DHT22;5793;52.238;13.438;2023-01-04T00:52:01;3.00;99.90
11474;DHT22;5793;52.238;13.438;2023-01-04T00:54:28;3.00;99.90
11474;DHT22;5793;52.238;13.438;2023-01-04T00:56:57;3.00;99.90
11474;DHT22;5793;52.238;13.438;2023-01-04T00:59:25;3.10;99.90
11474;DHT22;5793;52.238;13.438;2023-01-04T01:01:52;3.10;99.90
11474;DHT22;5793;52.238;13.438;2023-01-04T01:04:22;3.10;99.90
11474;DHT22;5793;52.238;13.438;2023-01-04T01:06:51;3.10;99.90
11474;DHT22;5793;52.238;13.438;2023-01-04T01:09:20;3.20;99.90
11474;DHT22;5793;52.238;13.438;2023-01-04T01:11:49;3.20;99.90
11474;DHT22;5793;52.238;13.438;2023-01-04T01:14:20;3.10;99.90
11474;DHT22;5793;52.238;13.438;2023-01-04T01:16:48;3.20;99.90
11474;DHT22;5793;52.238;13.438;2023-01-04T01:19:25;3.10;99.90
11474;DHT22;5793;52.238;13.438;2023-01-04T01:21:53;3.10;99.90
11474;DHT22;5793;52.238;13.438;2023-01-04T01:24:24;3.00;99.90
11474;DHT22;5793;52.238;13.438;2023-01-04T01:26:52;3.00;99.90
11474;DHT22;5793;52.238;13.438;2023-01-04T01:29:20;2.90;99.90
11474;DHT22;5793;52.238;13.438;2023-01-04T01:31:48;2.90;99.90
11474;DHT22;5793;52.238;13.438;2023-01-04T01:34:16;2.90;99.90
11474;DHT22;5793;52.238;13.438;2023-01-04T01:36:43;2.90;99.90
11474;DHT22;5793;52.238;13.438;2023-01-04T01:39:11;2.90;99.90
11474;DHT22;5793;52.238;13.438;2023-01-04T01:41:41;2.90;99.90
11474;DHT22;5793;52.238;13.438;2023-01-04T01:47:09;2.90;99.90
11474;DHT22;5793;52.238;13.438;2023-01-04T01:49:39;2.90;99.90
11474;DHT22;5793;52.238;13.438;2023-01-04T01:52:11;2.80;99.90
11474;DHT22;5793;52.238;13.438;2023-01-04T01:54:43;2.80;99.90
11474;DHT22;5793;52.238;13.438;2023-01-04T01:57:16;2.80;99.90
11474;DHT22;5793;52.238;13.438;2023-01-04T01:59:47;2.80;99.90
11474;DHT22;5793;52.238;13.438;2023-01-04T02:02:16;2.70;99.90
11474;DHT22;5793;52.238;13.438;2023-01-04T02:04:47;2.70;99.90
11474;DHT22;5793;52.238;13.438;2023-01-04T02:07:19;2.70;99.90
11474;DHT22;5793;52.238;13.438;2023-01-04T02:09:48;2.60;99.90
11474;DHT22;5793;52.238;13.438;2023-01-04T02:12:17;2.60;99.90
11474;DHT22;5793;52.238;13.438;2023-01-04T02:14:48;2.70;99.90
11474;DHT22;5793;52.238;13.438;2023-01-04T02:17:22;2.70;99.90
11474;DHT22;5793;52.238;13.438;2023-01-04T02:23:38;2.70;99.90
11474;DHT22;5793;52.238;13.438;2023-01-04T02:26:59;2.70;99.90
11474;DHT22;5793;52.238;13.438;2023-01-04T02:32:41;2.80;99.90
11474;DHT22;5793;52.238;13.438;2023-01-04T02:35:18;2.70;99.90
11474;DHT22;5793;52.238;13.438;2023-01-04T02:37:50;2.80;99.90
11474;DHT22;5793;52.238;13.438;2023-01-04T02:40:28;2.80;99.90
11474;DHT22;5793;52.238;13.438;2023-01-04T02:43:03;2.80;99.90
11474;DHT22;5793;52.238;13.438;2023-01-04T02:45:53;2.80;99.90
11474;DHT22;5793;52.238;13.438;2023-01-04T02:48:23;2.90;99.90
11474;DHT22;5793;52.238;13.438;2023-01-04T02:51:25;2.90;99.90
11474;DHT22;5793;52.238;13.438;2023-01-04T02:53:53;3.00;99.90
11474;DHT22;5793;52.238;13.438;2023-01-04T02:56:28;3.00;99.90
11474;DHT22;5793;52.238;13.438;2023-01-04T02:59:20;2.90;99.90
11474;DHT22;5793;52.238;13.438;2023-01-04T03:02:17;2.90;99.90
11474;DHT22;5793;52.238;13.438;2023-01-04T03:05:14;2.90;99.90
11474;DHT22;5793;52.238;13.438;2023-01-04T03:08:16;2.90;99.90
11474;DHT22;5793;52.238;13.438;2023-01-04T03:10:51;2.90;99.90
11474;DHT22;5793;52.238;13.438;2023-01-04T03:13:23;2.90;99.90
11474;DHT22;5793;52.238;13.438;2023-01-04T03:15:54;2.80;99.90
11474;DHT22;5793;52.238;13.438;2023-01-04T03:18:27;2.90;99.90
11474;DHT22;5793;52.238;13.438;2023-01-04T03:20:58;2.90;99.90
11474;DHT22;5793;52.238;13.438;2023-01-04T03:23:32;2.90;99.90
11474;DHT22;5793;52.238;13.438;2023-01-04T03:26:20;3.00;99.90
11474;DHT22;5793;52.238;13.438;2023-01-04T03:29:12;3.10;99.90
11474;DHT22;5793;52.238;13.438;2023-01-04T03:32:05;3.10;99.90
11474;DHT22;5793;52.238;13.438;2023-01-04T03:34:51;3.20;99.90
11474;DHT22;5793;52.238;13.438;2023-01-04T03:37:44;3.20;99.90
11474;DHT22;5793;52.238;13.438;2023-01-04T03:40:20;3.20;99.90
11474;DHT22;5793;52.238;13.438;2023-01-04T03:43:11;3.10;99.90
11474;DHT22;5793;52.238;13.438;2023-01-04T03:46:02;3.10;99.90
11474;DHT22;5793;52.238;13.438;2023-01-04T03:48:53;3.10;99.90
11474;DHT22;5793;52.238;13.438;2023-01-04T03:51:27;3.10;99.90
11474;DHT22;5793;52.238;13.438;2023-01-04T03:54:01;3.10;99.90
11474;DHT22;5793;52.238;13.438;2023-01-04T03:56:31;3.10;99.90
11474;DHT22;5793;52.238;13.438;2023-01-04T03:58:59;3.10;99.90
11474;DHT22;5793;52.238;13.438;2023-01-04T04:01:28;3.10;99.90
11474;DHT22;5793;52.238;13.438;2023-01-04T04:03:56;3.10;99.90
11474;DHT22;5793;52.238;13.438;2023-01-04T04:06:42;3.10;99.90
11474;DHT22;5793;52.238;13.438;2023-01-04T04:09:28;3.20;99.90
11474;DHT22;5793;52.238;13.438;2023-01-04T04:11:56;3.30;99.90
11474;DHT22;5793;52.238;13.438;2023-01-04T04:14:24;3.30;99.90
11474;DHT22;5793;52.238;13.438;2023-01-04T04:16:52;3.30;99.90
11474;DHT22;5793;52.238;13.438;2023-01-04T04:19:20;3.20;99.90
11474;DHT22;5793;52.238;13.438;2023-01-04T04:21:48;3.20;99.90
11474;DHT22;5793;52.238;13.438;2023-01-04T04:24:18;3.20;99.90
11474;DHT22;5793;52.238;13.438;2023-01-04T04:26:48;3.20;99.90
11474;DHT22;5793;52.238;13.438;2023-01-04T04:29:15;3.30;99.90
11474;DHT22;5793;52.238;13.438;2023-01-04T04:31:43;3.30;99.90
11474;DHT22;5793;52.238;13.438;2023-01-04T04:34:11;3.40;99.90
11474;DHT22;5793;52.238;13.438;2023-01-04T04:36:39;3.50;99.90
11474;DHT22;5793;52.238;13.438;2023-01-04T04:39:07;3.60;99.90
11474;DHT22;5793;52.238;13.438;2023-01-04T04:41:35;3.60;99.90
11474;DHT22;5793;52.238;13.438;2023-01-04T04:44:07;3.60;99.90
11474;DHT22;5793;52.238;13.438;2023-01-04T04:46:35;3.60;99.90
11474;DHT22;5793;52.238;13.438;2023-01-04T04:49:04;3.70;99.90
11474;DHT22;5793;52.238;13.438;2023-01-04T04:51:32;3.70;99.90
11474;DHT22;5793;52.238;13.438;2023-01-04T04:54:00;3.70;99.90
11474;DHT22;5793;52.238;13.438;2023-01-04T04:56:28;3.70;99.90
11474;DHT22;5793;52.238;13.438;2023-01-04T04:58:55;3.70;99.90
11474;DHT22;5793;52.238;13.438;2023-01-04T05:01:25;3.80;99.90
11474;DHT22;5793;52.238;13.438;2023-01-04T05:03:53;3.90;99.90
11474;DHT22;5793;52.238;13.438;2023-01-04T05:06:20;3.90;99.90
11474;DHT22;5793;52.238;13.438;2023-01-04T05:08:51;3.90;99.90
11474;DHT22;5793;52.238;13.438;2023-01-04T05:11:19;4.00;99.90
11474;DHT22;5793;52.238;13.438;2023-01-04T05:14:07;4.10;99.90
11474;DHT22;5793;52.238;13.438;2023-01-04T05:16:35;4.20;99.90
11474;DHT22;5793;52.238;13.438;2023-01-04T05:19:03;4.30;99.90
11474;DHT22;5793;52.238;13.438;2023-01-04T05:21:31;4.40;99.90
11474;DHT22;5793;52.238;13.438;2023-01-04T05:23:59;4.40;99.90
11474;DHT22;5793;52.238;13.438;2023-01-04T05:26:26;4.50;99.90
11474;DHT22;5793;52.238;13.438;2023-01-04T05:28:54;4.50;99.90
11474;DHT22;5793;52.238;13.438;2023-01-04T05:31:22;4.60;99.90
11474;DHT22;5793;52.238;13.438;2023-01-04T05:33:51;4.60;99.90
11474;DHT22;5793;52.238;13.438;2023-01-04T05:36:19;4.60;99.90
11474;DHT22;5793;52.238;13.438;2023-01-04T05:38:46;4.70;99.90
11474;DHT22;5793;52.238;13.438;2023-01-04T05:41:14;4.70;99.90
11474;DHT22;5793;52.238;13.438;2023-01-04T05:43:59;4.70;99.90
11474;DHT22;5793;52.238;13.438;2023-01-04T05:46:27;4.80;99.90
11474;DHT22;5793;52.238;13.438;2023-01-04T05:48:56;4.90;99.90
11474;DHT22;5793;52.238;13.438;2023-01-04T05:51:24;4.90;99.90
11474;DHT22;5793;52.238;13.438;2023-01-04T05:53:52;4.90;99.90
11474;DHT22;5793;52.238;13.438;2023-01-04T05:56:19;5.00;99.90
11474;DHT22;5793;52.238;13.438;2023-01-04T05:58:47;5.10;99.90
11474;DHT22;5793;52.238;13.438;2023-01-04T06:01:15;5.10;99.90
11474;DHT22;5793;52.238;13.438;2023-01-04T06:03:43;5.20;99.90
11474;DHT22;5793;52.238;13.438;2023-01-04T06:06:12;5.30;99.90
11474;DHT22;5793;52.238;13.438;2023-01-04T06:08:40;5.30;99.90
11474;DHT22;5793;52.238;13.438;2023-01-04T06:11:08;5.30;99.90
11474;DHT22;5793;52.238;13.438;2023-01-04T06:13:35;5.40;99.90
11474;DHT22;5793;52.238;13.438;2023-01-04T06:16:03;5.40;99.90
11474;DHT22;5793;52.238;13.438;2023-01-04T06:18:31;5.40;99.90
11474;DHT22;5793;52.238;13.438;2023-01-04T06:20:59;5.40;99.90
11474;DHT22;5793;52.238;13.438;2023-01-04T06:23:28;5.50;99.90
11474;DHT22;5793;52.238;13.438;2023-01-04T06:25:56;5.40;99.90
11474;DHT22;5793;52.238;13.438;2023-01-04T06:28:24;5.40;99.90
11474;DHT22;5793;52.238;13.438;2023-01-04T06:30:51;5.50;99.90
11474;DHT22;5793;52.238;13.438;2023-01-04T06:33:19;5.60;99.90
11474;DHT22;5793;52.238;13.438;2023-01-04T06:35:53;5.60;99.90
11474;DHT22;5793;52.238;13.438;2023-01-04T06:38:20;5.70;99.90
11474;DHT22;5793;52.238;13.438;2023-01-04T06:40:50;5.70;99.90
11474;DHT22;5793;52.238;13.438;2023-01-04T06:43:18;5.80;99.90
11474;DHT22;5793;52.238;13.438;2023-01-04T06:45:45;5.80;99.90
11474;DHT22;5793;52.238;13.438;2023-01-04T06:48:13;5.80;99.90
11474;DHT22;5793;52.238;13.438;2023-01-04T06:50:44;5.80;99.90
11474;DHT22;5793;52.238;13.438;2023-01-04T06:53:12;5.80;99.90
11474;DHT22;5793;52.238;13.438;2023-01-04T06:55:39;5.90;99.90
11474;DHT22;5793;52.238;13.438;2023-01-04T06:58:08;5.90;99.90
11474;DHT22;5793;52.238;13.438;2023-01-04T07:00:36;6.00;99.90
11474;DHT22;5793;52.238;13.438;2023-01-04T07:03:04;6.10;99.90
11474;DHT22;5793;52.238;13.438;2023-01-04T07:05:41;6.10;99.90
11474;DHT22;5793;52.238;13.438;2023-01-04T07:08:12;6.20;99.90
11474;DHT22;5793;52.238;13.438;2023-01-04T07:10:40;6.30;99.90
11474;DHT22;5793;52.238;13.438;2023-01-04T07:13:10;6.40;99.90
11474;DHT22;5793;52.238;13.438;2023-01-04T07:15:38;6.50;99.90
11474;DHT22;5793;52.238;13.438;2023-01-04T07:18:07;6.60;99.90
11474;DHT22;5793;52.238;13.438;2023-01-04T07:20:35;6.60;99.90
11474;DHT22;5793;52.238;13.438;2023-01-04T07:23:03;6.60;99.90
11474;DHT22;5793;52.238;13.438;2023-01-04T07:25:31;6.70;99.90
11474;DHT22;5793;52.238;13.438;2023-01-04T07:27:59;6.70;99.90
11474;DHT22;5793;52.238;13.438;2023-01-04T07:30:28;6.60;99.90
11474;DHT22;5793;52.238;13.438;2023-01-04T07:32:56;6.60;99.90
11474;DHT22;5793;52.238;13.438;2023-01-04T07:35:24;6.60;99.90
11474;DHT22;5793;52.238;13.438;2023-01-04T07:37:52;6.60;99.90
11474;DHT22;5793;52.238;13.438;2023-01-04T07:40:25;6.60;99.90
11474;DHT22;5793;52.238;13.438;2023-01-04T07:42:54;6.60;99.90
11474;DHT22;5793;52.238;13.438;2023-01-04T07:45:23;6.60;99.90
11474;DHT22;5793;52.238;13.438;2023-01-04T07:47:53;6.60;99.90
11474;DHT22;5793;52.238;13.438;2023-01-04T07:50:21;6.60;99.90
11474;DHT22;5793;52.238;13.438;2023-01-04T07:52:48;6.60;99.90
11474;DHT22;5793;52.238;13.438;2023-01-04T07:55:16;6.60;99.90
11474;DHT22;5793;52.238;13.438;2023-01-04T07:57:44;6.60;99.90
11474;DHT22;5793;52.238;13.438;2023-01-04T08:00:12;6.60;99.90
11474;DHT22;5793;52.238;13.438;2023-01-04T08:02:40;6.60;99.90
11474;DHT22;5793;52.238;13.438;2023-01-04T08:05:09;6.50;99.90
11474;DHT22;5793;52.238;13.438;2023-01-04T08:07:37;6.50;99.90
11474;DHT22;5793;52.238;13.438;2023-01-04T08:10:06;6.50;99.90
11474;DHT22;5793;52.238;13.438;2023-01-04T08:12:34;6.50;99.90
11474;DHT22;5793;52.238;13.438;2023-01-04T08:15:03;6.50;99.90
11474;DHT22;5793;52.238;13.438;2023-01-04T08:17:31;6.50;99.90
11474;DHT22;5793;52.238;13.438;2023-01-04T08:19:58;6.50;99.90
11474;DHT22;5793;52.238;13.438;2023-01-04T08:22:28;6.50;99.90
11474;DHT22;5793;52.238;13.438;2023-01-04T08:24:56;6.40;99.90
11474;DHT22;5793;52.238;13.438;2023-01-04T08:27:24;6.40;99.90
11474;DHT22;5793;52.238;13.438;2023-01-04T08:29:52;6.50;99.90
11474;DHT22;5793;52.238;13.438;2023-01-04T08:32:19;6.50;99.90
11474;DHT22;5793;52.238;13.438;2023-01-04T08:34:47;6.50;99.90
11474;DHT22;5793;52.238;13.438;2023-01-04T08:37:15;6.50;99.90
11474;DHT22;5793;52.238;13.438;2023-01-04T08:39:44;6.60;99.90
11474;DHT22;5793;52.238;13.438;2023-01-04T08:42:15;6.60;99.90
11474;DHT22;5793;52.238;13.438;2023-01-04T08:44:53;6.60;99.90
11474;DHT22;5793;52.238;13.438;2023-01-04T08:47:25;6.60;99.90
11474;DHT22;5793;52.238;13.438;2023-01-04T08:49:53;6.60;99.90
11474;DHT22;5793;52.238;13.438;2023-01-04T08:52:21;6.70;99.90
11474;DHT22;5793;52.238;13.438;2023-01-04T08:54:50;6.60;99.90
11474;DHT22;5793;52.238;13.438;2023-01-04T08:57:18;6.60;99.90
11474;DHT22;5793;52.238;13.438;2023-01-04T08:59:46;6.70;99.90
11474;DHT22;5793;52.238;13.438;2023-01-04T09:02:22;6.60;99.90
11474;DHT22;5793;52.238;13.438;2023-01-04T09:04:51;6.60;99.90
11474;DHT22;5793;52.238;13.438;2023-01-04T09:07:20;6.60;99.90
11474;DHT22;5793;52.238;13.438;2023-01-04T09:09:49;6.60;99.90
11474;DHT22;5793;52.238;13.438;2023-01-04T09:12:17;6.60;99.90
11474;DHT22;5793;52.238;13.438;2023-01-04T09:14:45;6.60;99.90
11474;DHT22;5793;52.238;13.438;2023-01-04T09:17:13;6.60;99.90
11474;DHT22;5793;52.238;13.438;2023-01-04T09:19:41;6.60;99.90
11474;DHT22;5793;52.238;13.438;2023-01-04T09:22:08;6.60;99.90
11474;DHT22;5793;52.238;13.438;2023-01-04T09:24:36;6.60;99.90
11474;DHT22;5793;52.238;13.438;2023-01-04T09:27:06;6.60;99.90
11474;DHT22;5793;52.238;13.438;2023-01-04T09:29:33;6.60;99.90
11474;DHT22;5793;52.238;13.438;2023-01-04T09:32:01;6.60;99.90
11474;DHT22;5793;52.238;13.438;2023-01-04T09:34:29;6.60;99.90
11474;DHT22;5793;52.238;13.438;2023-01-04T09:36:57;6.60;99.90
11474;DHT22;5793;52.238;13.438;2023-01-04T09:39:25;6.50;99.90
11474;DHT22;5793;52.238;13.438;2023-01-04T09:41:57;6.60;99.90
11474;DHT22;5793;52.238;13.438;2023-01-04T09:44:33;6.60;99.90
11474;DHT22;5793;52.238;13.438;2023-01-04T09:47:29;6.50;99.90
11474;DHT22;5793;52.238;13.438;2023-01-04T09:50:03;6.60;99.90
11474;DHT22;5793;52.238;13.438;2023-01-04T09:52:41;6.60;99.90
11474;DHT22;5793;52.238;13.438;2023-01-04T09:55:16;6.60;99.90
11474;DHT22;5793;52.238;13.438;2023-01-04T09:58:10;6.60;99.90
11474;DHT22;5793;52.238;13.438;2023-01-04T10:00:43;6.60;99.90
11474;DHT22;5793;52.238;13.438;2023-01-04T10:03:14;6.60;99.90
11474;DHT22;5793;52.238;13.438;2023-01-04T10:05:44;6.70;99.90
11474;DHT22;5793;52.238;13.438;2023-01-04T10:08:14;6.70;99.90
11474;DHT22;5793;52.238;13.438;2023-01-04T10:10:47;6.70;99.90
11474;DHT22;5793;52.238;13.438;2023-01-04T10:13:32;6.70;99.90
11474;DHT22;5793;52.238;13.438;2023-01-04T10:16:10;6.70;99.90
11474;DHT22;5793;52.238;13.438;2023-01-04T10:18:56;6.70;99.90
11474;DHT22;5793;52.238;13.438;2023-01-04T10:21:50;6.70;99.90
11474;DHT22;5793;52.238;13.438;2023-01-04T10:24:33;6.70;99.90
11474;DHT22;5793;52.238;13.438;2023-01-04T10:27:05;6.80;99.90
11474;DHT22;5793;52.238;13.438;2023-01-04T10:29:43;6.80;99.90
11474;DHT22;5793;52.238;13.438;2023-01-04T10:32:21;6.80;99.90
11474;DHT22;5793;52.238;13.438;2023-01-04T10:34:52;6.80;99.90
11474;DHT22;5793;52.238;13.438;2023-01-04T10:37:23;6.80;99.90
11474;DHT22;5793;52.238;13.438;2023-01-04T10:39:54;6.90;99.90
11474;DHT22;5793;52.238;13.438;2023-01-04T10:42:30;6.90;99.90
11474;DHT22;5793;52.238;13.438;2023-01-04T10:45:06;6.90;99.90
11474;DHT22;5793;52.238;13.438;2023-01-04T10:47:45;7.00;99.90
11474;DHT22;5793;52.238;13.438;2023-01-04T10:50:19;7.00;99.90
11474;DHT22;5793;52.238;13.438;2023-01-04T10:52:52;7.00;99.90
11474;DHT22;5793;52.238;13.438;2023-01-04T10:55:28;7.00;99.90
11474;DHT22;5793;52.238;13.438;2023-01-04T10:58:01;7.10;99.90
11474;DHT22;5793;52.238;13.438;2023-01-04T11:00:33;7.10;99.90
11474;DHT22;5793;52.238;13.438;2023-01-04T11:03:07;7.20;99.90
11474;DHT22;5793;52.238;13.438;2023-01-04T11:05:39;7.20;99.90
11474;DHT22;5793;52.238;13.438;2023-01-04T11:08:12;7.30;99.90
11474;DHT22;5793;52.238;13.438;2023-01-04T11:10:45;7.40;99.90
11474;DHT22;5793;52.238;13.438;2023-01-04T11:13:15;7.50;99.90
11474;DHT22;5793;52.238;13.438;2023-01-04T11:15:44;7.50;99.90
11474;DHT22;5793;52.238;13.438;2023-01-04T11:18:15;7.50;99.90
11474;DHT22;5793;52.238;13.438;2023-01-04T11:20:43;7.50;99.90
11474;DHT22;5793;52.238;13.438;2023-01-04T11:23:13;7.60;99.90
11474;DHT22;5793;52.238;13.438;2023-01-04T11:25:45;7.60;99.90
11474;DHT22;5793;52.238;13.438;2023-01-04T11:28:24;7.60;99.90
11474;DHT22;5793;52.238;13.438;2023-01-04T11:30:59;7.70;99.90
11474;DHT22;5793;52.238;13.438;2023-01-04T11:33:50;7.80;99.90
11474;DHT22;5793;52.238;13.438;2023-01-04T11:36:32;7.80;99.90
11474;DHT22;5793;52.238;13.438;2023-01-04T11:39:03;7.80;99.90
11474;DHT22;5793;52.238;13.438;2023-01-04T11:41:31;7.90;99.90
11474;DHT22;5793;52.238;13.438;2023-01-04T11:44:01;7.90;99.90
11474;DHT22;5793;52.238;13.438;2023-01-04T11:46:30;7.90;99.90
11474;DHT22;5793;52.238;13.438;2023-01-04T11:49:00;7.90;99.90
11474;DHT22;5793;52.238;13.438;2023-01-04T11:51:36;7.90;99.90
11474;DHT22;5793;52.238;13.438;2023-01-04T11:54:16;7.90;99.90
11474;DHT22;5793;52.238;13.438;2023-01-04T11:56:59;8.00;99.90
11474;DHT22;5793;52.238;13.438;2023-01-04T11:59:36;7.90;99.90
11474;DHT22;5793;52.238;13.438;2023-01-04T12:02:21;8.00;99.90
11474;DHT22;5793;52.238;13.438;2023-01-04T12:05:18;7.90;99.90
11474;DHT22;5793;52.238;13.438;2023-01-04T12:07:56;7.90;99.90
11474;DHT22;5793;52.238;13.438;2023-01-04T12:10:26;7.90;99.90
11474;DHT22;5793;52.238;13.438;2023-01-04T12:12:55;8.00;99.90
11474;DHT22;5793;52.238;13.438;2023-01-04T12:15:29;7.90;99.90
11474;DHT22;5793;52.238;13.438;2023-01-04T12:18:03;7.90;99.90
11474;DHT22;5793;52.238;13.438;2023-01-04T12:20:35;7.90;99.90
11474;DHT22;5793;52.238;13.438;2023-01-04T12:23:03;7.90;99.90
11474;DHT22;5793;52.238;13.438;2023-01-04T12:25:35;7.90;99.90
11474;DHT22;5793;52.238;13.438;2023-01-04T12:28:05;8.00;99.90
11474;DHT22;5793;52.238;13.438;2023-01-04T12:30:35;8.00;99.90
11474;DHT22;5793;52.238;13.438;2023-01-04T12:33:37;7.90;99.90
11474;DHT22;5793;52.238;13.438;2023-01-04T12:36:08;7.90;99.90
11474;DHT22;5793;52.238;13.438;2023-01-04T12:39:04;7.90;99.90
11474;DHT22;5793;52.238;13.438;2023-01-04T12:45:11;7.80;99.90
11474;DHT22;5793;52.238;13.438;2023-01-04T12:47:42;7.80;99.90
11474;DHT22;5793;52.238;13.438;2023-01-04T12:50:27;7.80;99.90
11474;DHT22;5793;52.238;13.438;2023-01-04T12:53:01;7.80;99.90
11474;DHT22;5793;52.238;13.438;2023-01-04T12:55:52;7.90;99.90
11474;DHT22;5793;52.238;13.438;2023-01-04T13:02:16;7.90;99.90
11474;DHT22;5793;52.238;13.438;2023-01-04T13:04:44;7.80;99.90
11474;DHT22;5793;52.238;13.438;2023-01-04T13:07:17;7.80;99.90
11474;DHT22;5793;52.238;13.438;2023-01-04T13:09:51;7.80;99.90
11474;DHT22;5793;52.238;13.438;2023-01-04T13:15:35;7.80;99.90
11474;DHT22;5793;52.238;13.438;2023-01-04T13:18:27;7.80;99.90
11474;DHT22;5793;52.238;13.438;2023-01-04T13:20:57;7.80;99.90
11474;DHT22;5793;52.238;13.438;2023-01-04T13:23:26;7.70;99.90
11474;DHT22;5793;52.238;13.438;2023-01-04T13:25:55;7.70;99.90
11474;DHT22;5793;52.238;13.438;2023-01-04T13:28:23;7.70;99.90
11474;DHT22;5793;52.238;13.438;2023-01-04T13:30:58;7.70;99.90
11474;DHT22;5793;52.238;13.438;2023-01-04T13:33:27;7.80;99.90
11474;DHT22;5793;52.238;13.438;2023-01-04T13:35:59;7.70;99.90
11474;DHT22;5793;52.238;13.438;2023-01-04T13:38:29;7.70;99.90
11474;DHT22;5793;52.238;13.438;2023-01-04T13:40:59;7.70;99.90
11474;DHT22;5793;52.238;13.438;2023-01-04T13:43:47;7.70;99.90
11474;DHT22;5793;52.238;13.438;2023-01-04T13:46:20;7.70;99.90
11474;DHT22;5793;52.238;13.438;2023-01-04T13:48:51;7.70;99.90
11474;DHT22;5793;52.238;13.438;2023-01-04T13:51:23;7.70;99.90
11474;DHT22;5793;52.238;13.438;2023-01-04T13:54:03;7.70;99.90
11474;DHT22;5793;52.238;13.438;2023-01-04T13:56:33;7.70;99.90
11474;DHT22;5793;52.238;13.438;2023-01-04T13:59:01;7.70;99.90
11474;DHT22;5793;52.238;13.438;2023-01-04T14:01:30;7.80;99.90
11474;DHT22;5793;52.238;13.438;2023-01-04T14:04:01;7.80;99.90
11474;DHT22;5793;52.238;13.438;2023-01-04T14:06:32;7.70;99.90
11474;DHT22;5793;52.238;13.438;2023-01-04T14:09:04;7.70;99.90
11474;DHT22;5793;52.238;13.438;2023-01-04T14:11:41;7.80;99.90
11474;DHT22;5793;52.238;13.438;2023-01-04T14:14:45;7.80;99.90
11474;DHT22;5793;52.238;13.438;2023-01-04T14:17:28;7.80;99.90
11474;DHT22;5793;52.238;13.438;2023-01-04T14:20:00;7.90;99.90
11474;DHT22;5793;52.238;13.438;2023-01-04T14:22:40;7.90;99.90
11474;DHT22;5793;52.238;13.438;2023-01-04T14:28:37;7.90;99.90
11474;DHT22;5793;52.238;13.438;2023-01-04T14:31:35;8.00;99.90
11474;DHT22;5793;52.238;13.438;2023-01-04T14:34:11;7.90;99.90
11474;DHT22;5793;52.238;13.438;2023-01-04T14:36:41;7.90;99.90
11474;DHT22;5793;52.238;13.438;2023-01-04T14:39:31;8.00;99.90
11474;DHT22;5793;52.238;13.438;2023-01-04T14:42:00;8.00;99.90
11474;DHT22;5793;52.238;13.438;2023-01-04T14:44:30;8.00;99.90
11474;DHT22;5793;52.238;13.438;2023-01-04T14:47:01;8.10;99.90
11474;DHT22;5793;52.238;13.438;2023-01-04T14:49:32;8.10;99.90
11474;DHT22;5793;52.238;13.438;2023-01-04T14:52:01;8.10;99.90
11474;DHT22;5793;52.238;13.438;2023-01-04T14:54:30;8.10;99.90
11474;DHT22;5793;52.238;13.438;2023-01-04T14:57:01;8.10;99.90
11474;DHT22;5793;52.238;13.438;2023-01-04T14:59:30;8.10;99.90
11474;DHT22;5793;52.238;13.438;2023-01-04T15:01:59;8.10;99.90
11474;DHT22;5793;52.238;13.438;2023-01-04T15:04:27;8.10;99.90
11474;DHT22;5793;52.238;13.438;2023-01-04T15:06:57;8.00;99.90
11474;DHT22;5793;52.238;13.438;2023-01-04T15:09:26;8.00;99.90
11474;DHT22;5793;52.238;13.438;2023-01-04T15:11:54;8.10;99.90
11474;DHT22;5793;52.238;13.438;2023-01-04T15:14:22;8.10;99.90
11474;DHT22;5793;52.238;13.438;2023-01-04T15:16:51;8.10;99.90
11474;DHT22;5793;52.238;13.438;2023-01-04T15:19:19;8.20;99.90
11474;DHT22;5793;52.238;13.438;2023-01-04T15:21:47;8.20;99.90
11474;DHT22;5793;52.238;13.438;2023-01-04T15:24:15;8.10;99.90
11474;DHT22;5793;52.238;13.438;2023-01-04T15:26:43;8.20;99.90
11474;DHT22;5793;52.238;13.438;2023-01-04T15:29:11;8.20;99.90
11474;DHT22;5793;52.238;13.438;2023-01-04T15:31:39;8.20;99.90
11474;DHT22;5793;52.238;13.438;2023-01-04T15:34:10;8.20;99.90
11474;DHT22;5793;52.238;13.438;2023-01-04T15:36:40;8.30;99.90
11474;DHT22;5793;52.238;13.438;2023-01-04T15:39:10;8.20;99.90
11474;DHT22;5793;52.238;13.438;2023-01-04T15:41:39;8.30;99.90
11474;DHT22;5793;52.238;13.438;2023-01-04T15:44:24;8.40;99.90
11474;DHT22;5793;52.238;13.438;2023-01-04T15:46:53;8.40;99.90
11474;DHT22;5793;52.238;13.438;2023-01-04T15:49:22;8.40;99.90
11474;DHT22;5793;52.238;13.438;2023-01-04T15:51:51;8.40;99.90
11474;DHT22;5793;52.238;13.438;2023-01-04T15:54:18;8.40;99.90
11474;DHT22;5793;52.238;13.438;2023-01-04T15:56:47;8.40;99.90
11474;DHT22;5793;52.238;13.438;2023-01-04T15:59:15;8.40;99.90
11474;DHT22;5793;52.238;13.438;2023-01-04T16:01:43;8.50;99.90
11474;DHT22;5793;52.238;13.438;2023-01-04T16:04:12;8.50;99.90
11474;DHT22;5793;52.238;13.438;2023-01-04T16:06:41;8.50;99.90
11474;DHT22;5793;52.238;13.438;2023-01-04T16:09:09;8.50;99.90
11474;DHT22;5793;52.238;13.438;2023-01-04T16:11:37;8.60;99.90
11474;DHT22;5793;52.238;13.438;2023-01-04T16:14:26;8.60;99.90
11474;DHT22;5793;52.238;13.438;2023-01-04T16:16:54;8.60;99.90
11474;DHT22;5793;52.238;13.438;2023-01-04T16:19:22;8.60;99.90
11474;DHT22;5793;52.238;13.438;2023-01-04T16:21:51;8.60;99.90
11474;DHT22;5793;52.238;13.438;2023-01-04T16:24:19;8.60;99.90
11474;DHT22;5793;52.238;13.438;2023-01-04T16:27:07;8.70;99.90
11474;DHT22;5793;52.238;13.438;2023-01-04T16:29:35;8.70;99.90
11474;DHT22;5793;52.238;13.438;2023-01-04T16:32:04;8.60;99.90
11474;DHT22;5793;52.238;13.438;2023-01-04T16:34:32;8.60;99.90
11474;DHT22;5793;52.238;13.438;2023-01-04T16:37:01;8.70;99.90
11474;DHT22;5793;52.238;13.438;2023-01-04T16:39:29;8.60;99.90